AGROMETEOROLOŠKI PORTAL

vinorodna pokrajina

Temelj dobrega kmetovanja

Pregled podatkov za lokacijo Šentjakob, meteorološka postaja 513648

Pregled senzorjev na lokaciji

ID Ime Zadnja
vrednost
Datum in čas
meritve
(lokalni čas)
Tip
senzorja
6114 Omočenost lista (20 cm) (U) 0 U 4.10.2022 14:30 A730WET
6117 Omočenost lista (1,5 m) (U) 0 U 4.10.2022 14:30 A730WET
6118 Padavine (mm) 0 mm 4.10.2022 14:30 Generic 0.2 mm
6113 Relativna zračna vlaga (20 cm) (%RH) 60 %RH 4.10.2022 14:30 50YA
6116 Relativna zračna vlaga (2 m) (%RH) 61 %RH 4.10.2022 14:30 50YA
6112 Temperatura (20 cm) (°C) 19,4 °C 4.10.2022 14:30 50YA
6115 Temperatura (2 m) (°C) 17,4 °C 4.10.2022 14:30 50YA

Pregled podatkov zadnjih 24 ur

Zap.
št.
Datum in čas
(lokalni čas)
Šentjakob
Omočenost
lista
(20
cm)
Omočenost
lista
(1,5
m)
Padavine Relativna
zračna
vlaga
(20
cm)
Relativna
zračna
vlaga
(2
m)
Temperatura
(20
cm)
Temperatura
(2
m)
1 4.10.2022 14:30 0 0 0 61,2 59,5 19,4 17,4
2 4.10.2022 14:00 1 0 0 65,1 64,9 18,2 16,5
3 4.10.2022 13:30 10 0 0 70,6 71,6 16,5 15,3
4 4.10.2022 13:00 10 0 0 75,2 76,5 15,4 14,4
5 4.10.2022 12:30 10 0 0 76,4 76,5 14,8 13,6
6 4.10.2022 12:00 10 0 0 80,6 80,3 14,8 13,3
7 4.10.2022 11:30 10 0 0 83,5 83,4 14,7 12,9
8 4.10.2022 11:00 10 0 0 98,2 95,2 12,7 10,9
9 4.10.2022 10:30 10 1 0 99,9 99,4 10,3 9
10 4.10.2022 10:00 10 1 0 99,9 99,5 9,2 8,3
11 4.10.2022 09:30 10 1 0 99,9 99,5 8,7 7,8
12 4.10.2022 09:00 10 3 0 99,9 99,6 7,9 7,2
13 4.10.2022 08:30 10 9 0 99,9 99,5 7,1 6,7
14 4.10.2022 08:00 10 9 0 99,9 99,5 7 6,5
15 4.10.2022 07:30 10 9 0 99,9 99,5 6,8 6,5
16 4.10.2022 07:00 10 9 0 99,9 99,4 6,6 6,5
17 4.10.2022 06:30 10 10 0 99,9 99,3 6,6 6,5
18 4.10.2022 06:00 10 10 0 99,9 99,4 6,5 6,6
19 4.10.2022 05:30 10 10 0 99,9 99,3 6,5 6,5
20 4.10.2022 05:00 10 10 0 99,9 99,3 6,6 6,8
21 4.10.2022 04:30 10 10 0 99,9 99,1 6,4 7,1
22 4.10.2022 04:00 10 10 0 99,9 99 6,5 7,3
23 4.10.2022 03:30 10 10 0 99,9 98,8 6,8 7,5
24 4.10.2022 03:00 10 10 0 99,9 98,9 7,5 8,1
25 4.10.2022 02:30 10 10 0 99,9 99 8,3 8,5
26 4.10.2022 02:00 10 10 0 99,9 99 8,4 8,7
27 4.10.2022 01:30 10 10 0 99,9 98,9 8,2 8,7
28 4.10.2022 01:00 10 10 0 99,9 98,8 8,1 8,6
29 4.10.2022 00:30 10 10 0 99,9 98,7 8,2 8,6
30 4.10.2022 00:00 10 10 0 99,9 98,5 8 8,6
31 3.10.2022 23:30 10 10 0 99,9 98,3 8,2 9
32 3.10.2022 23:00 10 10 0 99,9 98,2 8,7 9,5
33 3.10.2022 22:30 10 10 0 99,9 97,9 9 9,9
34 3.10.2022 22:00 10 10 0 99,5 97,3 9,3 10,2
35 3.10.2022 21:30 10 10 0 97,8 96,5 9,8 10,8
36 3.10.2022 21:00 10 10 0 93,2 95,6 10,6 11,7
37 3.10.2022 20:30 6 10 0 92,5 96,5 11 12,5
38 3.10.2022 20:00 3 10 0 90,3 94,7 11,4 13
39 3.10.2022 19:30 1 5 0 86 89,7 12,7 13,9
40 3.10.2022 19:00 0 0 0 74,6 84,3 14,2 15,7
41 3.10.2022 18:30 0 0 0 68,1 74,9 16,3 17,4
42 3.10.2022 18:00 0 0 0 59,8 63,8 18,4 19,2
43 3.10.2022 17:30 0 0 0 58,5 62,1 19,2 19,9
44 3.10.2022 17:00 0 0 0 57,8 61,1 19,8 20,2
45 3.10.2022 16:30 0 0 0 55,9 59 20,5 20,4
46 3.10.2022 16:00 0 0 0 53,9 55,2 22,5 21,1